sensor_id;sensor_type;location;lat;lon;timestamp;temperature;humidity
20349;DHT22;10332;50.208;18.988;2024-01-06T00:00:29;2.90;1.00
20349;DHT22;10332;50.208;18.988;2024-01-06T00:03:17;2.90;1.00
20349;DHT22;10332;50.208;18.988;2024-01-06T00:05:45;2.90;1.00
20349;DHT22;10332;50.208;18.988;2024-01-06T00:08:12;2.90;1.00
20349;DHT22;10332;50.208;18.988;2024-01-06T00:10:39;3.00;1.00
20349;DHT22;10332;50.208;18.988;2024-01-06T00:13:07;3.00;1.00
20349;DHT22;10332;50.208;18.988;2024-01-06T00:15:34;3.00;1.00
20349;DHT22;10332;50.208;18.988;2024-01-06T00:18:02;3.10;1.00
20349;DHT22;10332;50.208;18.988;2024-01-06T00:20:29;3.10;1.00
20349;DHT22;10332;50.208;18.988;2024-01-06T00:22:56;3.10;1.00
20349;DHT22;10332;50.208;18.988;2024-01-06T00:25:26;3.10;1.00
20349;DHT22;10332;50.208;18.988;2024-01-06T00:27:53;3.10;1.00
20349;DHT22;10332;50.208;18.988;2024-01-06T00:30:21;3.00;1.00
20349;DHT22;10332;50.208;18.988;2024-01-06T00:32:49;3.10;1.00
20349;DHT22;10332;50.208;18.988;2024-01-06T00:35:16;3.20;1.00
20349;DHT22;10332;50.208;18.988;2024-01-06T00:37:44;3.20;1.00
20349;DHT22;10332;50.208;18.988;2024-01-06T00:40:11;3.30;1.00
20349;DHT22;10332;50.208;18.988;2024-01-06T00:42:39;3.30;1.00
20349;DHT22;10332;50.208;18.988;2024-01-06T00:45:07;3.30;1.00
20349;DHT22;10332;50.208;18.988;2024-01-06T00:47:34;3.20;1.00
20349;DHT22;10332;50.208;18.988;2024-01-06T00:50:02;3.20;1.00
20349;DHT22;10332;50.208;18.988;2024-01-06T00:52:29;3.20;1.00
20349;DHT22;10332;50.208;18.988;2024-01-06T00:54:57;3.30;1.00
20349;DHT22;10332;50.208;18.988;2024-01-06T00:57:24;3.30;1.00
20349;DHT22;10332;50.208;18.988;2024-01-06T00:59:52;3.30;1.00
20349;DHT22;10332;50.208;18.988;2024-01-06T01:02:19;3.40;1.00
20349;DHT22;10332;50.208;18.988;2024-01-06T01:04:46;3.30;1.00
20349;DHT22;10332;50.208;18.988;2024-01-06T01:07:14;3.30;1.00
20349;DHT22;10332;50.208;18.988;2024-01-06T01:09:41;3.40;1.00
20349;DHT22;10332;50.208;18.988;2024-01-06T01:12:08;3.40;1.00
20349;DHT22;10332;50.208;18.988;2024-01-06T01:14:36;3.40;1.00
20349;DHT22;10332;50.208;18.988;2024-01-06T01:17:03;3.40;1.00
20349;DHT22;10332;50.208;18.988;2024-01-06T01:19:31;3.50;1.00
20349;DHT22;10332;50.208;18.988;2024-01-06T01:21:58;3.50;1.00
20349;DHT22;10332;50.208;18.988;2024-01-06T01:24:26;3.50;1.00
20349;DHT22;10332;50.208;18.988;2024-01-06T01:26:53;3.50;1.00
20349;DHT22;10332;50.208;18.988;2024-01-06T01:29:22;3.50;1.00
20349;DHT22;10332;50.208;18.988;2024-01-06T01:31:49;3.50;1.00
20349;DHT22;10332;50.208;18.988;2024-01-06T01:34:16;3.50;1.00
20349;DHT22;10332;50.208;18.988;2024-01-06T01:36:44;3.50;1.00
20349;DHT22;10332;50.208;18.988;2024-01-06T01:39:12;3.50;1.00
20349;DHT22;10332;50.208;18.988;2024-01-06T01:41:40;3.50;1.00
20349;DHT22;10332;50.208;18.988;2024-01-06T01:44:07;3.50;1.00
20349;DHT22;10332;50.208;18.988;2024-01-06T01:46:35;3.50;1.00
20349;DHT22;10332;50.208;18.988;2024-01-06T01:49:03;3.60;1.00
20349;DHT22;10332;50.208;18.988;2024-01-06T01:51:34;3.50;1.00
20349;DHT22;10332;50.208;18.988;2024-01-06T01:54:02;3.50;1.00
20349;DHT22;10332;50.208;18.988;2024-01-06T01:56:31;3.50;1.00
20349;DHT22;10332;50.208;18.988;2024-01-06T01:59:06;3.50;1.00
20349;DHT22;10332;50.208;18.988;2024-01-06T02:01:34;3.50;1.00
20349;DHT22;10332;50.208;18.988;2024-01-06T02:04:01;3.50;1.00
20349;DHT22;10332;50.208;18.988;2024-01-06T02:06:29;3.60;1.00
20349;DHT22;10332;50.208;18.988;2024-01-06T02:08:56;3.60;1.00
20349;DHT22;10332;50.208;18.988;2024-01-06T02:11:24;3.60;1.00
20349;DHT22;10332;50.208;18.988;2024-01-06T02:13:51;3.60;1.00
20349;DHT22;10332;50.208;18.988;2024-01-06T02:16:19;3.60;1.00
20349;DHT22;10332;50.208;18.988;2024-01-06T02:18:46;3.70;1.00
20349;DHT22;10332;50.208;18.988;2024-01-06T02:21:14;3.60;1.00
20349;DHT22;10332;50.208;18.988;2024-01-06T02:23:42;3.60;1.00
20349;DHT22;10332;50.208;18.988;2024-01-06T02:26:10;3.60;1.00
20349;DHT22;10332;50.208;18.988;2024-01-06T02:28:37;3.70;1.00
20349;DHT22;10332;50.208;18.988;2024-01-06T02:31:04;3.70;1.00
20349;DHT22;10332;50.208;18.988;2024-01-06T02:33:32;3.70;1.00
20349;DHT22;10332;50.208;18.988;2024-01-06T02:35:59;3.70;1.00
20349;DHT22;10332;50.208;18.988;2024-01-06T02:38:28;3.70;1.00
20349;DHT22;10332;50.208;18.988;2024-01-06T02:40:55;3.70;1.00
20349;DHT22;10332;50.208;18.988;2024-01-06T02:43:23;3.80;1.00
20349;DHT22;10332;50.208;18.988;2024-01-06T02:45:50;3.80;1.00
20349;DHT22;10332;50.208;18.988;2024-01-06T02:48:17;3.80;1.00
20349;DHT22;10332;50.208;18.988;2024-01-06T02:50:45;3.70;1.00
20349;DHT22;10332;50.208;18.988;2024-01-06T02:53:13;3.70;1.00
20349;DHT22;10332;50.208;18.988;2024-01-06T02:55:40;3.70;1.00
20349;DHT22;10332;50.208;18.988;2024-01-06T02:58:07;3.80;1.00
20349;DHT22;10332;50.208;18.988;2024-01-06T03:00:35;3.80;1.00
20349;DHT22;10332;50.208;18.988;2024-01-06T03:03:02;3.70;1.00
20349;DHT22;10332;50.208;18.988;2024-01-06T03:05:30;3.80;1.00
20349;DHT22;10332;50.208;18.988;2024-01-06T03:07:57;3.80;1.00
20349;DHT22;10332;50.208;18.988;2024-01-06T03:10:25;3.80;1.00
20349;DHT22;10332;50.208;18.988;2024-01-06T03:12:52;3.90;1.00
20349;DHT22;10332;50.208;18.988;2024-01-06T03:15:19;3.90;1.00
20349;DHT22;10332;50.208;18.988;2024-01-06T03:17:47;3.90;1.00
20349;DHT22;10332;50.208;18.988;2024-01-06T03:20:14;4.00;1.00
20349;DHT22;10332;50.208;18.988;2024-01-06T03:22:42;4.00;1.00
20349;DHT22;10332;50.208;18.988;2024-01-06T03:25:09;4.00;99.90
20349;DHT22;10332;50.208;18.988;2024-01-06T03:27:37;4.00;99.90
20349;DHT22;10332;50.208;18.988;2024-01-06T03:30:05;4.10;99.90
20349;DHT22;10332;50.208;18.988;2024-01-06T03:32:33;4.10;99.90
20349;DHT22;10332;50.208;18.988;2024-01-06T03:35:00;4.10;99.90
20349;DHT22;10332;50.208;18.988;2024-01-06T03:37:27;4.20;99.90
20349;DHT22;10332;50.208;18.988;2024-01-06T03:39:55;4.20;99.90
20349;DHT22;10332;50.208;18.988;2024-01-06T03:42:22;4.10;99.90
20349;DHT22;10332;50.208;18.988;2024-01-06T03:44:49;4.10;99.90
20349;DHT22;10332;50.208;18.988;2024-01-06T03:47:17;4.10;99.90
20349;DHT22;10332;50.208;18.988;2024-01-06T03:49:45;4.10;99.90
20349;DHT22;10332;50.208;18.988;2024-01-06T03:52:12;4.00;99.90
20349;DHT22;10332;50.208;18.988;2024-01-06T03:54:41;4.00;99.90
20349;DHT22;10332;50.208;18.988;2024-01-06T03:57:08;4.00;99.90
20349;DHT22;10332;50.208;18.988;2024-01-06T03:59:35;4.00;99.90
20349;DHT22;10332;50.208;18.988;2024-01-06T04:02:03;4.00;99.90
20349;DHT22;10332;50.208;18.988;2024-01-06T04:04:30;4.00;99.90
20349;DHT22;10332;50.208;18.988;2024-01-06T04:06:58;4.00;99.90
20349;DHT22;10332;50.208;18.988;2024-01-06T04:09:28;4.10;99.90
20349;DHT22;10332;50.208;18.988;2024-01-06T04:11:56;4.10;99.90
20349;DHT22;10332;50.208;18.988;2024-01-06T04:14:23;4.20;99.90
20349;DHT22;10332;50.208;18.988;2024-01-06T04:16:50;4.20;99.90
20349;DHT22;10332;50.208;18.988;2024-01-06T04:19:22;4.20;99.90
20349;DHT22;10332;50.208;18.988;2024-01-06T04:21:49;4.20;99.90
20349;DHT22;10332;50.208;18.988;2024-01-06T04:24:17;4.30;99.90
20349;DHT22;10332;50.208;18.988;2024-01-06T04:26:44;4.20;99.90
20349;DHT22;10332;50.208;18.988;2024-01-06T04:29:13;4.30;99.90
20349;DHT22;10332;50.208;18.988;2024-01-06T04:31:43;4.30;99.90
20349;DHT22;10332;50.208;18.988;2024-01-06T04:34:10;4.30;99.90
20349;DHT22;10332;50.208;18.988;2024-01-06T04:36:38;4.40;99.90
20349;DHT22;10332;50.208;18.988;2024-01-06T04:39:05;4.40;99.90
20349;DHT22;10332;50.208;18.988;2024-01-06T04:41:33;4.40;99.90
20349;DHT22;10332;50.208;18.988;2024-01-06T04:44:00;4.40;99.90
20349;DHT22;10332;50.208;18.988;2024-01-06T04:46:28;4.40;99.90
20349;DHT22;10332;50.208;18.988;2024-01-06T04:48:57;4.40;99.90
20349;DHT22;10332;50.208;18.988;2024-01-06T04:51:25;4.40;99.90
20349;DHT22;10332;50.208;18.988;2024-01-06T04:53:52;4.40;99.90
20349;DHT22;10332;50.208;18.988;2024-01-06T04:56:20;4.40;99.90
20349;DHT22;10332;50.208;18.988;2024-01-06T04:58:47;4.30;99.90
20349;DHT22;10332;50.208;18.988;2024-01-06T05:01:14;4.40;99.90
20349;DHT22;10332;50.208;18.988;2024-01-06T05:03:42;4.40;99.90
20349;DHT22;10332;50.208;18.988;2024-01-06T05:06:10;4.50;99.90
20349;DHT22;10332;50.208;18.988;2024-01-06T05:08:37;4.50;99.90
20349;DHT22;10332;50.208;18.988;2024-01-06T05:11:08;4.50;99.90
20349;DHT22;10332;50.208;18.988;2024-01-06T05:13:36;4.50;99.90
20349;DHT22;10332;50.208;18.988;2024-01-06T05:16:03;4.50;99.90
20349;DHT22;10332;50.208;18.988;2024-01-06T05:18:31;4.50;99.90
20349;DHT22;10332;50.208;18.988;2024-01-06T05:20:58;4.50;99.90
20349;DHT22;10332;50.208;18.988;2024-01-06T05:23:26;4.50;99.90
20349;DHT22;10332;50.208;18.988;2024-01-06T05:25:53;4.60;99.90
20349;DHT22;10332;50.208;18.988;2024-01-06T05:28:20;4.50;99.90
20349;DHT22;10332;50.208;18.988;2024-01-06T05:30:48;4.50;99.90
20349;DHT22;10332;50.208;18.988;2024-01-06T05:33:16;4.50;99.90
20349;DHT22;10332;50.208;18.988;2024-01-06T05:35:44;4.50;99.90
20349;DHT22;10332;50.208;18.988;2024-01-06T05:38:11;4.50;99.90
20349;DHT22;10332;50.208;18.988;2024-01-06T05:40:39;4.60;99.90
20349;DHT22;10332;50.208;18.988;2024-01-06T05:43:06;4.60;99.90
20349;DHT22;10332;50.208;18.988;2024-01-06T05:45:33;4.60;99.90
20349;DHT22;10332;50.208;18.988;2024-01-06T05:48:01;4.60;82.50
20349;DHT22;10332;50.208;18.988;2024-01-06T05:50:28;4.60;99.10
20349;DHT22;10332;50.208;18.988;2024-01-06T05:52:56;4.50;99.90
20349;DHT22;10332;50.208;18.988;2024-01-06T05:55:24;4.50;99.90
20349;DHT22;10332;50.208;18.988;2024-01-06T05:57:51;4.50;99.90
20349;DHT22;10332;50.208;18.988;2024-01-06T06:00:19;4.50;99.90
20349;DHT22;10332;50.208;18.988;2024-01-06T06:02:46;4.60;99.90
20349;DHT22;10332;50.208;18.988;2024-01-06T06:05:14;4.60;99.90
20349;DHT22;10332;50.208;18.988;2024-01-06T06:07:41;4.60;99.90
20349;DHT22;10332;50.208;18.988;2024-01-06T06:10:10;4.60;99.90
20349;DHT22;10332;50.208;18.988;2024-01-06T06:12:38;4.60;99.90
20349;DHT22;10332;50.208;18.988;2024-01-06T06:15:06;4.60;99.90
20349;DHT22;10332;50.208;18.988;2024-01-06T06:17:34;4.60;99.90
20349;DHT22;10332;50.208;18.988;2024-01-06T06:20:02;4.60;99.90
20349;DHT22;10332;50.208;18.988;2024-01-06T06:22:29;4.60;99.90
20349;DHT22;10332;50.208;18.988;2024-01-06T06:24:59;4.60;99.90
20349;DHT22;10332;50.208;18.988;2024-01-06T06:27:26;4.70;99.90
20349;DHT22;10332;50.208;18.988;2024-01-06T06:29:55;4.70;99.90
20349;DHT22;10332;50.208;18.988;2024-01-06T06:32:25;4.70;99.90
20349;DHT22;10332;50.208;18.988;2024-01-06T06:34:53;4.70;99.90
20349;DHT22;10332;50.208;18.988;2024-01-06T06:37:20;4.70;99.90
20349;DHT22;10332;50.208;18.988;2024-01-06T06:39:48;4.80;99.90
20349;DHT22;10332;50.208;18.988;2024-01-06T06:42:16;4.80;99.90
20349;DHT22;10332;50.208;18.988;2024-01-06T06:44:43;4.90;99.90
20349;DHT22;10332;50.208;18.988;2024-01-06T06:47:10;5.00;99.90
20349;DHT22;10332;50.208;18.988;2024-01-06T06:49:37;5.00;99.90
20349;DHT22;10332;50.208;18.988;2024-01-06T06:52:05;5.00;99.90
20349;DHT22;10332;50.208;18.988;2024-01-06T06:54:34;5.10;99.90
20349;DHT22;10332;50.208;18.988;2024-01-06T06:57:01;5.00;99.90
20349;DHT22;10332;50.208;18.988;2024-01-06T06:59:30;5.00;99.90
20349;DHT22;10332;50.208;18.988;2024-01-06T07:01:57;5.00;99.90
20349;DHT22;10332;50.208;18.988;2024-01-06T07:04:24;5.00;99.90
20349;DHT22;10332;50.208;18.988;2024-01-06T07:06:53;4.90;99.90
20349;DHT22;10332;50.208;18.988;2024-01-06T07:09:20;4.90;99.90
20349;DHT22;10332;50.208;18.988;2024-01-06T07:11:51;4.80;99.90
20349;DHT22;10332;50.208;18.988;2024-01-06T07:14:18;4.80;99.90
20349;DHT22;10332;50.208;18.988;2024-01-06T07:16:45;4.70;99.90
20349;DHT22;10332;50.208;18.988;2024-01-06T07:19:12;4.70;99.90
20349;DHT22;10332;50.208;18.988;2024-01-06T07:21:40;4.70;99.90
20349;DHT22;10332;50.208;18.988;2024-01-06T07:24:07;4.70;99.90
20349;DHT22;10332;50.208;18.988;2024-01-06T07:26:35;4.70;99.90
20349;DHT22;10332;50.208;18.988;2024-01-06T07:29:03;4.80;99.90
20349;DHT22;10332;50.208;18.988;2024-01-06T07:31:31;4.80;99.90
20349;DHT22;10332;50.208;18.988;2024-01-06T07:33:59;4.90;99.90
20349;DHT22;10332;50.208;18.988;2024-01-06T07:36:26;5.00;99.90
20349;DHT22;10332;50.208;18.988;2024-01-06T07:38:54;5.10;99.90
20349;DHT22;10332;50.208;18.988;2024-01-06T07:41:21;5.20;99.90
20349;DHT22;10332;50.208;18.988;2024-01-06T07:43:49;5.20;75.30
20349;DHT22;10332;50.208;18.988;2024-01-06T07:46:16;5.20;1.00
20349;DHT22;10332;50.208;18.988;2024-01-06T07:48:46;5.20;15.70
20349;DHT22;10332;50.208;18.988;2024-01-06T07:51:14;5.20;1.00
20349;DHT22;10332;50.208;18.988;2024-01-06T07:53:41;5.10;1.00
20349;DHT22;10332;50.208;18.988;2024-01-06T07:56:09;5.10;1.00
20349;DHT22;10332;50.208;18.988;2024-01-06T07:58:36;5.20;1.00
20349;DHT22;10332;50.208;18.988;2024-01-06T08:01:04;5.20;14.60
20349;DHT22;10332;50.208;18.988;2024-01-06T08:03:31;5.30;48.00
20349;DHT22;10332;50.208;18.988;2024-01-06T08:05:59;5.30;1.00
20349;DHT22;10332;50.208;18.988;2024-01-06T08:08:27;5.30;90.10
20349;DHT22;10332;50.208;18.988;2024-01-06T08:10:54;5.30;99.90
20349;DHT22;10332;50.208;18.988;2024-01-06T08:13:21;5.40;1.00
20349;DHT22;10332;50.208;18.988;2024-01-06T08:15:49;5.50;99.90
20349;DHT22;10332;50.208;18.988;2024-01-06T08:18:16;5.40;99.90
20349;DHT22;10332;50.208;18.988;2024-01-06T08:20:46;5.50;99.90
20349;DHT22;10332;50.208;18.988;2024-01-06T08:23:13;5.60;99.90
20349;DHT22;10332;50.208;18.988;2024-01-06T08:25:41;5.60;99.90
20349;DHT22;10332;50.208;18.988;2024-01-06T08:28:08;5.70;99.90
20349;DHT22;10332;50.208;18.988;2024-01-06T08:30:36;5.70;99.90
20349;DHT22;10332;50.208;18.988;2024-01-06T08:33:04;5.80;99.90
20349;DHT22;10332;50.208;18.988;2024-01-06T08:35:31;5.90;99.90
20349;DHT22;10332;50.208;18.988;2024-01-06T08:37:58;6.00;49.60
20349;DHT22;10332;50.208;18.988;2024-01-06T08:40:26;6.00;1.00
20349;DHT22;10332;50.208;18.988;2024-01-06T08:42:54;6.10;1.00
20349;DHT22;10332;50.208;18.988;2024-01-06T08:45:21;6.20;1.00
20349;DHT22;10332;50.208;18.988;2024-01-06T08:47:49;6.30;1.00
20349;DHT22;10332;50.208;18.988;2024-01-06T08:50:17;6.40;1.00
20349;DHT22;10332;50.208;18.988;2024-01-06T08:52:44;6.40;1.00
20349;DHT22;10332;50.208;18.988;2024-01-06T08:55:12;6.40;1.00
20349;DHT22;10332;50.208;18.988;2024-01-06T08:57:42;6.40;99.90
20349;DHT22;10332;50.208;18.988;2024-01-06T09:00:10;6.40;99.90
20349;DHT22;10332;50.208;18.988;2024-01-06T09:02:37;6.50;1.00
20349;DHT22;10332;50.208;18.988;2024-01-06T09:05:06;6.50;1.00
20349;DHT22;10332;50.208;18.988;2024-01-06T09:07:33;6.60;1.00
20349;DHT22;10332;50.208;18.988;2024-01-06T09:10:01;6.60;99.90
20349;DHT22;10332;50.208;18.988;2024-01-06T09:12:29;6.60;1.00
20349;DHT22;10332;50.208;18.988;2024-01-06T09:14:57;6.60;1.00
20349;DHT22;10332;50.208;18.988;2024-01-06T09:17:24;6.60;1.00
20349;DHT22;10332;50.208;18.988;2024-01-06T09:19:52;6.50;92.30
20349;DHT22;10332;50.208;18.988;2024-01-06T09:22:21;6.50;38.60
20349;DHT22;10332;50.208;18.988;2024-01-06T09:24:48;6.60;99.90
20349;DHT22;10332;50.208;18.988;2024-01-06T09:27:15;6.60;99.90
20349;DHT22;10332;50.208;18.988;2024-01-06T09:29:43;6.60;99.90
20349;DHT22;10332;50.208;18.988;2024-01-06T09:32:10;6.60;99.90
20349;DHT22;10332;50.208;18.988;2024-01-06T09:34:38;6.50;99.90
20349;DHT22;10332;50.208;18.988;2024-01-06T09:37:06;6.50;99.90
20349;DHT22;10332;50.208;18.988;2024-01-06T09:39:34;6.60;1.00
20349;DHT22;10332;50.208;18.988;2024-01-06T09:42:01;6.60;1.00
20349;DHT22;10332;50.208;18.988;2024-01-06T09:44:29;6.60;1.00
20349;DHT22;10332;50.208;18.988;2024-01-06T09:46:58;6.70;1.00
20349;DHT22;10332;50.208;18.988;2024-01-06T09:49:28;6.70;1.00
20349;DHT22;10332;50.208;18.988;2024-01-06T09:51:58;6.70;1.00
20349;DHT22;10332;50.208;18.988;2024-01-06T09:54:30;6.80;1.00
20349;DHT22;10332;50.208;18.988;2024-01-06T09:57:04;6.80;1.00
20349;DHT22;10332;50.208;18.988;2024-01-06T09:59:33;6.80;1.00
20349;DHT22;10332;50.208;18.988;2024-01-06T10:02:04;6.80;1.00
20349;DHT22;10332;50.208;18.988;2024-01-06T10:04:32;6.90;1.00
20349;DHT22;10332;50.208;18.988;2024-01-06T10:07:00;6.90;1.00
20349;DHT22;10332;50.208;18.988;2024-01-06T10:09:28;6.90;1.00
20349;DHT22;10332;50.208;18.988;2024-01-06T10:11:56;6.90;1.00
20349;DHT22;10332;50.208;18.988;2024-01-06T10:14:27;7.00;1.00
20349;DHT22;10332;50.208;18.988;2024-01-06T10:16:54;7.00;1.00
20349;DHT22;10332;50.208;18.988;2024-01-06T10:19:23;7.00;1.00
20349;DHT22;10332;50.208;18.988;2024-01-06T10:21:51;7.10;1.00
20349;DHT22;10332;50.208;18.988;2024-01-06T10:24:19;7.20;1.00
20349;DHT22;10332;50.208;18.988;2024-01-06T10:26:46;7.20;1.00
20349;DHT22;10332;50.208;18.988;2024-01-06T10:29:13;7.30;99.90
20349;DHT22;10332;50.208;18.988;2024-01-06T10:31:41;7.30;99.90
20349;DHT22;10332;50.208;18.988;2024-01-06T10:34:11;7.30;99.90
20349;DHT22;10332;50.208;18.988;2024-01-06T10:36:39;7.30;99.90
20349;DHT22;10332;50.208;18.988;2024-01-06T10:39:06;7.40;99.90
20349;DHT22;10332;50.208;18.988;2024-01-06T10:41:34;7.40;99.90
20349;DHT22;10332;50.208;18.988;2024-01-06T10:44:03;7.40;78.30
20349;DHT22;10332;50.208;18.988;2024-01-06T10:46:31;7.40;83.20
20349;DHT22;10332;50.208;18.988;2024-01-06T10:49:00;7.40;89.00
20349;DHT22;10332;50.208;18.988;2024-01-06T10:51:28;7.50;46.40
20349;DHT22;10332;50.208;18.988;2024-01-06T10:53:58;7.40;1.00
20349;DHT22;10332;50.208;18.988;2024-01-06T10:56:29;7.40;1.00
20349;DHT22;10332;50.208;18.988;2024-01-06T10:58:58;7.30;1.00
20349;DHT22;10332;50.208;18.988;2024-01-06T11:01:29;7.40;50.80
20349;DHT22;10332;50.208;18.988;2024-01-06T11:03:57;7.40;99.90
20349;DHT22;10332;50.208;18.988;2024-01-06T11:06:25;7.50;99.90
20349;DHT22;10332;50.208;18.988;2024-01-06T11:09:16;7.50;99.90
20349;DHT22;10332;50.208;18.988;2024-01-06T11:11:47;7.60;99.90
20349;DHT22;10332;50.208;18.988;2024-01-06T11:14:20;7.60;99.90
20349;DHT22;10332;50.208;18.988;2024-01-06T11:16:48;7.60;99.90
20349;DHT22;10332;50.208;18.988;2024-01-06T11:22:28;7.70;26.30
20349;DHT22;10332;50.208;18.988;2024-01-06T11:25:07;7.70;1.00
20349;DHT22;10332;50.208;18.988;2024-01-06T11:27:36;7.70;1.00
20349;DHT22;10332;50.208;18.988;2024-01-06T11:30:04;7.70;1.00
20349;DHT22;10332;50.208;18.988;2024-01-06T11:32:36;7.80;1.00
20349;DHT22;10332;50.208;18.988;2024-01-06T11:40:15;8.10;1.00
20349;DHT22;10332;50.208;18.988;2024-01-06T11:42:42;8.20;1.00
20349;DHT22;10332;50.208;18.988;2024-01-06T11:45:13;8.30;99.90
20349;DHT22;10332;50.208;18.988;2024-01-06T11:47:47;8.30;99.90
20349;DHT22;10332;50.208;18.988;2024-01-06T11:50:16;8.30;1.00
20349;DHT22;10332;50.208;18.988;2024-01-06T11:52:44;8.30;1.00
20349;DHT22;10332;50.208;18.988;2024-01-06T11:55:12;8.20;1.00
20349;DHT22;10332;50.208;18.988;2024-01-06T11:57:40;8.20;1.00
20349;DHT22;10332;50.208;18.988;2024-01-06T12:00:08;8.10;1.00
20349;DHT22;10332;50.208;18.988;2024-01-06T12:02:35;8.10;24.10
20349;DHT22;10332;50.208;18.988;2024-01-06T12:05:02;8.00;99.90
20349;DHT22;10332;50.208;18.988;2024-01-06T12:07:30;8.00;1.00
20349;DHT22;10332;50.208;18.988;2024-01-06T12:10:03;8.00;1.00
20349;DHT22;10332;50.208;18.988;2024-01-06T12:12:31;8.10;1.00
20349;DHT22;10332;50.208;18.988;2024-01-06T12:14:59;8.10;1.00
20349;DHT22;10332;50.208;18.988;2024-01-06T12:17:31;8.00;1.00
20349;DHT22;10332;50.208;18.988;2024-01-06T12:19:59;8.00;26.20
20349;DHT22;10332;50.208;18.988;2024-01-06T12:22:27;8.00;27.30
20349;DHT22;10332;50.208;18.988;2024-01-06T12:24:55;8.00;99.90
20349;DHT22;10332;50.208;18.988;2024-01-06T12:27:24;8.00;99.90
20349;DHT22;10332;50.208;18.988;2024-01-06T12:29:52;8.00;99.90
20349;DHT22;10332;50.208;18.988;2024-01-06T12:32:20;7.90;99.90
20349;DHT22;10332;50.208;18.988;2024-01-06T12:34:48;7.90;99.90
20349;DHT22;10332;50.208;18.988;2024-01-06T12:37:16;7.90;99.90
20349;DHT22;10332;50.208;18.988;2024-01-06T12:39:47;7.80;99.90
20349;DHT22;10332;50.208;18.988;2024-01-06T12:42:17;7.80;14.60
20349;DHT22;10332;50.208;18.988;2024-01-06T12:44:47;7.70;1.00
20349;DHT22;10332;50.208;18.988;2024-01-06T12:47:14;7.70;99.90
20349;DHT22;10332;50.208;18.988;2024-01-06T12:49:42;7.60;99.90
20349;DHT22;10332;50.208;18.988;2024-01-06T12:52:09;7.60;99.90
20349;DHT22;10332;50.208;18.988;2024-01-06T12:54:37;7.50;99.90
20349;DHT22;10332;50.208;18.988;2024-01-06T12:57:04;7.50;1.00
20349;DHT22;10332;50.208;18.988;2024-01-06T12:59:32;7.40;1.00
20349;DHT22;10332;50.208;18.988;2024-01-06T13:02:00;7.30;1.00
20349;DHT22;10332;50.208;18.988;2024-01-06T13:04:27;7.30;1.00
20349;DHT22;10332;50.208;18.988;2024-01-06T13:06:55;7.20;1.00
20349;DHT22;10332;50.208;18.988;2024-01-06T13:09:26;7.20;1.00
20349;DHT22;10332;50.208;18.988;2024-01-06T13:11:54;7.10;1.00
20349;DHT22;10332;50.208;18.988;2024-01-06T13:14:23;7.10;44.30
20349;DHT22;10332;50.208;18.988;2024-01-06T13:16:50;7.00;99.90
20349;DHT22;10332;50.208;18.988;2024-01-06T13:19:17;7.00;99.90
20349;DHT22;10332;50.208;18.988;2024-01-06T13:21:45;6.90;99.90
20349;DHT22;10332;50.208;18.988;2024-01-06T13:24:13;6.80;99.90
20349;DHT22;10332;50.208;18.988;2024-01-06T13:26:40;6.80;99.90
20349;DHT22;10332;50.208;18.988;2024-01-06T13:29:08;6.70;99.90
20349;DHT22;10332;50.208;18.988;2024-01-06T13:31:35;6.70;99.90
20349;DHT22;10332;50.208;18.988;2024-01-06T13:34:04;6.60;99.90
20349;DHT22;10332;50.208;18.988;2024-01-06T13:36:33;6.60;99.90
20349;DHT22;10332;50.208;18.988;2024-01-06T13:39:01;6.60;1.00
20349;DHT22;10332;50.208;18.988;2024-01-06T13:41:28;6.60;1.00
20349;DHT22;10332;50.208;18.988;2024-01-06T13:43:57;6.60;1.00
20349;DHT22;10332;50.208;18.988;2024-01-06T13:46:24;6.60;1.00
20349;DHT22;10332;50.208;18.988;2024-01-06T13:48:52;6.50;99.90
20349;DHT22;10332;50.208;18.988;2024-01-06T13:51:19;6.50;99.90
20349;DHT22;10332;50.208;18.988;2024-01-06T13:53:47;6.50;99.90
20349;DHT22;10332;50.208;18.988;2024-01-06T13:56:15;6.50;99.90
20349;DHT22;10332;50.208;18.988;2024-01-06T13:58:42;6.40;99.90
20349;DHT22;10332;50.208;18.988;2024-01-06T14:01:09;6.40;99.90
20349;DHT22;10332;50.208;18.988;2024-01-06T14:03:39;6.30;1.00
20349;DHT22;10332;50.208;18.988;2024-01-06T14:06:06;6.20;1.00
20349;DHT22;10332;50.208;18.988;2024-01-06T14:08:35;6.10;1.00
20349;DHT22;10332;50.208;18.988;2024-01-06T14:11:02;6.10;1.00
20349;DHT22;10332;50.208;18.988;2024-01-06T14:13:29;6.00;1.00
20349;DHT22;10332;50.208;18.988;2024-01-06T14:15:59;5.90;1.00
20349;DHT22;10332;50.208;18.988;2024-01-06T14:18:27;5.80;1.00
20349;DHT22;10332;50.208;18.988;2024-01-06T14:20:55;5.80;1.00
20349;DHT22;10332;50.208;18.988;2024-01-06T14:23:23;5.70;1.00
20349;DHT22;10332;50.208;18.988;2024-01-06T14:25:51;5.70;1.00
20349;DHT22;10332;50.208;18.988;2024-01-06T14:28:19;5.70;1.00
20349;DHT22;10332;50.208;18.988;2024-01-06T14:30:47;5.70;1.00
20349;DHT22;10332;50.208;18.988;2024-01-06T14:33:15;5.60;1.00
20349;DHT22;10332;50.208;18.988;2024-01-06T14:35:42;5.60;1.00
20349;DHT22;10332;50.208;18.988;2024-01-06T14:38:11;5.50;1.00
20349;DHT22;10332;50.208;18.988;2024-01-06T14:40:39;5.50;1.00
20349;DHT22;10332;50.208;18.988;2024-01-06T14:43:06;5.60;1.00
20349;DHT22;10332;50.208;18.988;2024-01-06T14:45:34;5.50;1.00
20349;DHT22;10332;50.208;18.988;2024-01-06T14:48:02;5.50;1.00
20349;DHT22;10332;50.208;18.988;2024-01-06T14:50:29;5.50;1.00
20349;DHT22;10332;50.208;18.988;2024-01-06T14:52:57;5.50;1.00
20349;DHT22;10332;50.208;18.988;2024-01-06T14:55:24;5.40;1.00
20349;DHT22;10332;50.208;18.988;2024-01-06T14:57:52;5.40;1.00
20349;DHT22;10332;50.208;18.988;2024-01-06T15:00:19;5.30;1.00
20349;DHT22;10332;50.208;18.988;2024-01-06T15:02:47;5.30;1.00
20349;DHT22;10332;50.208;18.988;2024-01-06T15:05:14;5.30;1.00
20349;DHT22;10332;50.208;18.988;2024-01-06T15:07:42;5.30;1.00
20349;DHT22;10332;50.208;18.988;2024-01-06T15:10:09;5.20;1.00
20349;DHT22;10332;50.208;18.988;2024-01-06T15:12:38;5.20;1.00
20349;DHT22;10332;50.208;18.988;2024-01-06T15:15:05;5.10;1.00
20349;DHT22;10332;50.208;18.988;2024-01-06T15:17:35;5.00;1.00
20349;DHT22;10332;50.208;18.988;2024-01-06T15:20:07;5.00;1.00
20349;DHT22;10332;50.208;18.988;2024-01-06T15:22:34;4.90;1.00
20349;DHT22;10332;50.208;18.988;2024-01-06T15:25:07;4.90;1.00
20349;DHT22;10332;50.208;18.988;2024-01-06T15:27:35;4.80;1.00
20349;DHT22;10332;50.208;18.988;2024-01-06T15:30:02;4.80;1.00
20349;DHT22;10332;50.208;18.988;2024-01-06T15:32:36;4.80;1.00
20349;DHT22;10332;50.208;18.988;2024-01-06T15:35:04;4.80;1.00
20349;DHT22;10332;50.208;18.988;2024-01-06T15:37:31;4.80;1.00
20349;DHT22;10332;50.208;18.988;2024-01-06T15:39:59;4.80;1.00
20349;DHT22;10332;50.208;18.988;2024-01-06T15:42:26;4.80;1.00
20349;DHT22;10332;50.208;18.988;2024-01-06T15:44:54;4.80;1.00
20349;DHT22;10332;50.208;18.988;2024-01-06T15:47:22;4.70;1.00
20349;DHT22;10332;50.208;18.988;2024-01-06T15:49:49;4.80;1.00
20349;DHT22;10332;50.208;18.988;2024-01-06T15:52:17;4.80;1.00